sensor_id;sensor_type;location;lat;lon;timestamp;P1;durP1;ratioP1;P2;durP2;ratioP2
43919;SDS011;29578;51.946;5.874;2023-04-15T00:00:24;0.50;;;0.50;;
43919;SDS011;29578;51.946;5.874;2023-04-15T00:02:50;0.30;;;0.30;;
43919;SDS011;29578;51.946;5.874;2023-04-15T00:05:17;0.35;;;0.30;;
43919;SDS011;29578;51.946;5.874;2023-04-15T00:07:42;0.50;;;0.50;;
43919;SDS011;29578;51.946;5.874;2023-04-15T00:10:09;0.50;;;0.50;;
43919;SDS011;29578;51.946;5.874;2023-04-15T00:12:35;0.50;;;0.50;;
43919;SDS011;29578;51.946;5.874;2023-04-15T00:15:01;0.57;;;0.50;;
43919;SDS011;29578;51.946;5.874;2023-04-15T00:17:26;1.70;;;0.60;;
43919;SDS011;29578;51.946;5.874;2023-04-15T00:19:52;0.55;;;0.55;;
43919;SDS011;29578;51.946;5.874;2023-04-15T00:22:18;1.98;;;0.60;;
43919;SDS011;29578;51.946;5.874;2023-04-15T00:24:44;0.43;;;0.40;;
43919;SDS011;29578;51.946;5.874;2023-04-15T00:27:09;0.60;;;0.50;;
43919;SDS011;29578;51.946;5.874;2023-04-15T00:29:35;0.82;;;0.50;;
43919;SDS011;29578;51.946;5.874;2023-04-15T00:32:01;0.80;;;0.60;;
43919;SDS011;29578;51.946;5.874;2023-04-15T00:34:26;0.75;;;0.65;;
43919;SDS011;29578;51.946;5.874;2023-04-15T00:36:52;1.17;;;0.80;;
43919;SDS011;29578;51.946;5.874;2023-04-15T00:39:18;0.40;;;0.40;;
43919;SDS011;29578;51.946;5.874;2023-04-15T00:41:44;1.27;;;0.52;;
43919;SDS011;29578;51.946;5.874;2023-04-15T00:44:10;0.63;;;0.60;;
43919;SDS011;29578;51.946;5.874;2023-04-15T00:46:36;0.45;;;0.45;;
43919;SDS011;29578;51.946;5.874;2023-04-15T00:49:04;0.52;;;0.50;;
43919;SDS011;29578;51.946;5.874;2023-04-15T00:51:31;0.77;;;0.68;;
43919;SDS011;29578;51.946;5.874;2023-04-15T00:53:58;0.88;;;0.75;;
43919;SDS011;29578;51.946;5.874;2023-04-15T00:56:24;0.93;;;0.60;;
43919;SDS011;29578;51.946;5.874;2023-04-15T00:58:52;0.45;;;0.45;;
43919;SDS011;29578;51.946;5.874;2023-04-15T01:01:19;0.80;;;0.65;;
43919;SDS011;29578;51.946;5.874;2023-04-15T01:03:47;0.38;;;0.38;;
43919;SDS011;29578;51.946;5.874;2023-04-15T01:06:14;0.63;;;0.60;;
43919;SDS011;29578;51.946;5.874;2023-04-15T01:08:40;0.80;;;0.73;;
43919;SDS011;29578;51.946;5.874;2023-04-15T01:11:06;0.70;;;0.70;;
43919;SDS011;29578;51.946;5.874;2023-04-15T01:13:33;0.70;;;0.60;;
43919;SDS011;29578;51.946;5.874;2023-04-15T01:16:00;0.82;;;0.60;;
43919;SDS011;29578;51.946;5.874;2023-04-15T01:18:27;0.68;;;0.68;;
43919;SDS011;29578;51.946;5.874;2023-04-15T01:20:53;0.60;;;0.55;;
43919;SDS011;29578;51.946;5.874;2023-04-15T01:23:19;1.05;;;0.70;;
43919;SDS011;29578;51.946;5.874;2023-04-15T01:25:47;0.52;;;0.52;;
43919;SDS011;29578;51.946;5.874;2023-04-15T01:28:13;0.55;;;0.50;;
43919;SDS011;29578;51.946;5.874;2023-04-15T01:30:40;0.93;;;0.70;;
43919;SDS011;29578;51.946;5.874;2023-04-15T01:33:05;0.68;;;0.65;;
43919;SDS011;29578;51.946;5.874;2023-04-15T01:35:31;0.60;;;0.50;;
43919;SDS011;29578;51.946;5.874;2023-04-15T01:38:04;0.70;;;0.70;;
43919;SDS011;29578;51.946;5.874;2023-04-15T01:40:31;0.60;;;0.60;;
43919;SDS011;29578;51.946;5.874;2023-04-15T01:42:58;0.82;;;0.60;;
43919;SDS011;29578;51.946;5.874;2023-04-15T01:45:24;0.60;;;0.60;;
43919;SDS011;29578;51.946;5.874;2023-04-15T01:47:50;1.38;;;0.65;;
43919;SDS011;29578;51.946;5.874;2023-04-15T01:50:16;0.52;;;0.52;;
43919;SDS011;29578;51.946;5.874;2023-04-15T01:52:41;0.65;;;0.65;;
43919;SDS011;29578;51.946;5.874;2023-04-15T01:55:07;1.00;;;0.60;;
43919;SDS011;29578;51.946;5.874;2023-04-15T01:57:33;0.70;;;0.70;;
43919;SDS011;29578;51.946;5.874;2023-04-15T01:59:59;1.25;;;0.70;;
43919;SDS011;29578;51.946;5.874;2023-04-15T02:02:25;0.70;;;0.50;;
43919;SDS011;29578;51.946;5.874;2023-04-15T02:04:50;0.93;;;0.63;;
43919;SDS011;29578;51.946;5.874;2023-04-15T02:07:18;0.50;;;0.50;;
43919;SDS011;29578;51.946;5.874;2023-04-15T02:09:44;1.10;;;0.73;;
43919;SDS011;29578;51.946;5.874;2023-04-15T02:12:10;0.70;;;0.50;;
43919;SDS011;29578;51.946;5.874;2023-04-15T02:14:36;1.40;;;0.70;;
43919;SDS011;29578;51.946;5.874;2023-04-15T02:17:02;1.23;;;0.60;;
43919;SDS011;29578;51.946;5.874;2023-04-15T02:19:31;0.70;;;0.70;;
43919;SDS011;29578;51.946;5.874;2023-04-15T02:21:58;0.80;;;0.60;;
43919;SDS011;29578;51.946;5.874;2023-04-15T02:24:25;0.85;;;0.75;;
43919;SDS011;29578;51.946;5.874;2023-04-15T02:26:51;0.55;;;0.50;;
43919;SDS011;29578;51.946;5.874;2023-04-15T02:29:17;0.95;;;0.57;;
43919;SDS011;29578;51.946;5.874;2023-04-15T02:31:43;0.93;;;0.68;;
43919;SDS011;29578;51.946;5.874;2023-04-15T02:34:09;0.85;;;0.60;;
43919;SDS011;29578;51.946;5.874;2023-04-15T02:36:35;0.85;;;0.70;;
43919;SDS011;29578;51.946;5.874;2023-04-15T02:39:01;0.93;;;0.68;;
43919;SDS011;29578;51.946;5.874;2023-04-15T02:41:28;0.70;;;0.70;;
43919;SDS011;29578;51.946;5.874;2023-04-15T02:43:54;1.10;;;0.70;;
43919;SDS011;29578;51.946;5.874;2023-04-15T02:46:20;0.70;;;0.60;;
43919;SDS011;29578;51.946;5.874;2023-04-15T02:48:47;1.60;;;0.70;;
43919;SDS011;29578;51.946;5.874;2023-04-15T02:51:14;0.65;;;0.65;;
43919;SDS011;29578;51.946;5.874;2023-04-15T02:53:43;1.08;;;0.80;;
43919;SDS011;29578;51.946;5.874;2023-04-15T02:56:10;1.10;;;0.80;;
43919;SDS011;29578;51.946;5.874;2023-04-15T02:58:36;0.68;;;0.60;;
43919;SDS011;29578;51.946;5.874;2023-04-15T03:01:04;1.35;;;0.90;;
43919;SDS011;29578;51.946;5.874;2023-04-15T03:03:29;1.55;;;0.90;;
43919;SDS011;29578;51.946;5.874;2023-04-15T03:05:55;0.60;;;0.60;;
43919;SDS011;29578;51.946;5.874;2023-04-15T03:08:21;0.85;;;0.68;;
43919;SDS011;29578;51.946;5.874;2023-04-15T03:10:46;0.65;;;0.63;;
43919;SDS011;29578;51.946;5.874;2023-04-15T03:13:12;0.50;;;0.47;;
43919;SDS011;29578;51.946;5.874;2023-04-15T03:15:38;1.05;;;0.70;;
43919;SDS011;29578;51.946;5.874;2023-04-15T03:18:04;1.38;;;0.90;;
43919;SDS011;29578;51.946;5.874;2023-04-15T03:20:29;0.77;;;0.60;;
43919;SDS011;29578;51.946;5.874;2023-04-15T03:22:55;1.20;;;0.80;;
43919;SDS011;29578;51.946;5.874;2023-04-15T03:25:21;1.27;;;0.80;;
43919;SDS011;29578;51.946;5.874;2023-04-15T03:27:46;1.10;;;0.60;;
43919;SDS011;29578;51.946;5.874;2023-04-15T03:30:12;1.23;;;0.80;;
43919;SDS011;29578;51.946;5.874;2023-04-15T03:32:38;1.27;;;0.70;;
43919;SDS011;29578;51.946;5.874;2023-04-15T03:35:04;0.98;;;0.65;;
43919;SDS011;29578;51.946;5.874;2023-04-15T03:37:30;0.98;;;0.77;;
43919;SDS011;29578;51.946;5.874;2023-04-15T03:39:56;0.90;;;0.70;;
43919;SDS011;29578;51.946;5.874;2023-04-15T03:42:22;0.80;;;0.70;;
43919;SDS011;29578;51.946;5.874;2023-04-15T03:44:47;1.52;;;0.70;;
43919;SDS011;29578;51.946;5.874;2023-04-15T03:47:13;1.13;;;0.80;;
43919;SDS011;29578;51.946;5.874;2023-04-15T03:49:39;0.60;;;0.60;;
43919;SDS011;29578;51.946;5.874;2023-04-15T03:52:05;0.95;;;0.85;;
43919;SDS011;29578;51.946;5.874;2023-04-15T03:54:31;1.33;;;0.80;;
43919;SDS011;29578;51.946;5.874;2023-04-15T03:56:56;1.60;;;0.98;;
43919;SDS011;29578;51.946;5.874;2023-04-15T03:59:22;1.17;;;0.77;;
43919;SDS011;29578;51.946;5.874;2023-04-15T04:01:48;0.77;;;0.70;;
43919;SDS011;29578;51.946;5.874;2023-04-15T04:04:13;1.20;;;0.68;;
43919;SDS011;29578;51.946;5.874;2023-04-15T04:06:39;1.50;;;1.00;;
43919;SDS011;29578;51.946;5.874;2023-04-15T04:09:05;0.60;;;0.52;;
43919;SDS011;29578;51.946;5.874;2023-04-15T04:11:31;0.93;;;0.70;;
43919;SDS011;29578;51.946;5.874;2023-04-15T04:13:57;0.85;;;0.70;;
43919;SDS011;29578;51.946;5.874;2023-04-15T04:16:23;0.77;;;0.70;;
43919;SDS011;29578;51.946;5.874;2023-04-15T04:18:48;0.88;;;0.65;;
43919;SDS011;29578;51.946;5.874;2023-04-15T04:21:14;0.60;;;0.60;;
43919;SDS011;29578;51.946;5.874;2023-04-15T04:23:40;1.08;;;0.70;;
43919;SDS011;29578;51.946;5.874;2023-04-15T04:26:05;0.60;;;0.60;;
43919;SDS011;29578;51.946;5.874;2023-04-15T04:28:31;0.82;;;0.80;;
43919;SDS011;29578;51.946;5.874;2023-04-15T04:30:57;0.70;;;0.70;;
43919;SDS011;29578;51.946;5.874;2023-04-15T04:33:23;1.20;;;0.90;;
43919;SDS011;29578;51.946;5.874;2023-04-15T04:35:49;0.60;;;0.60;;
43919;SDS011;29578;51.946;5.874;2023-04-15T04:38:14;1.13;;;0.80;;
43919;SDS011;29578;51.946;5.874;2023-04-15T04:40:40;1.10;;;0.80;;
43919;SDS011;29578;51.946;5.874;2023-04-15T04:43:06;1.48;;;1.00;;
43919;SDS011;29578;51.946;5.874;2023-04-15T04:45:31;0.88;;;0.70;;
43919;SDS011;29578;51.946;5.874;2023-04-15T04:47:57;0.85;;;0.70;;
43919;SDS011;29578;51.946;5.874;2023-04-15T04:50:22;1.40;;;0.80;;
43919;SDS011;29578;51.946;5.874;2023-04-15T04:52:48;1.00;;;0.70;;
43919;SDS011;29578;51.946;5.874;2023-04-15T04:55:14;1.02;;;0.80;;
43919;SDS011;29578;51.946;5.874;2023-04-15T04:57:39;0.80;;;0.80;;
43919;SDS011;29578;51.946;5.874;2023-04-15T05:00:06;0.85;;;0.70;;
43919;SDS011;29578;51.946;5.874;2023-04-15T05:02:32;1.65;;;0.90;;
43919;SDS011;29578;51.946;5.874;2023-04-15T05:04:59;0.98;;;0.85;;
43919;SDS011;29578;51.946;5.874;2023-04-15T05:07:25;1.13;;;0.93;;
43919;SDS011;29578;51.946;5.874;2023-04-15T05:09:50;1.33;;;0.95;;
43919;SDS011;29578;51.946;5.874;2023-04-15T05:12:16;1.23;;;0.80;;
43919;SDS011;29578;51.946;5.874;2023-04-15T05:14:42;1.92;;;0.90;;
43919;SDS011;29578;51.946;5.874;2023-04-15T05:17:08;1.25;;;0.80;;
43919;SDS011;29578;51.946;5.874;2023-04-15T05:19:34;1.98;;;0.93;;
43919;SDS011;29578;51.946;5.874;2023-04-15T05:21:59;0.80;;;0.68;;
43919;SDS011;29578;51.946;5.874;2023-04-15T05:24:25;1.00;;;0.88;;
43919;SDS011;29578;51.946;5.874;2023-04-15T05:26:51;1.25;;;0.90;;
43919;SDS011;29578;51.946;5.874;2023-04-15T05:29:16;1.42;;;1.20;;
43919;SDS011;29578;51.946;5.874;2023-04-15T05:31:42;0.93;;;0.77;;
43919;SDS011;29578;51.946;5.874;2023-04-15T05:34:08;1.02;;;0.77;;
43919;SDS011;29578;51.946;5.874;2023-04-15T05:36:35;1.25;;;0.82;;
43919;SDS011;29578;51.946;5.874;2023-04-15T05:39:01;1.98;;;1.00;;
43919;SDS011;29578;51.946;5.874;2023-04-15T05:41:28;1.60;;;0.80;;
43919;SDS011;29578;51.946;5.874;2023-04-15T05:43:53;1.75;;;1.00;;
43919;SDS011;29578;51.946;5.874;2023-04-15T05:46:20;0.93;;;0.82;;
43919;SDS011;29578;51.946;5.874;2023-04-15T05:48:46;1.00;;;0.80;;
43919;SDS011;29578;51.946;5.874;2023-04-15T05:51:12;1.52;;;1.00;;
43919;SDS011;29578;51.946;5.874;2023-04-15T05:53:37;1.08;;;0.80;;
43919;SDS011;29578;51.946;5.874;2023-04-15T05:56:05;1.00;;;0.90;;
43919;SDS011;29578;51.946;5.874;2023-04-15T05:58:31;0.85;;;0.70;;
43919;SDS011;29578;51.946;5.874;2023-04-15T06:00:56;1.40;;;0.90;;
43919;SDS011;29578;51.946;5.874;2023-04-15T06:03:22;1.35;;;0.85;;
43919;SDS011;29578;51.946;5.874;2023-04-15T06:05:48;1.40;;;0.88;;
43919;SDS011;29578;51.946;5.874;2023-04-15T06:08:14;1.45;;;0.98;;
43919;SDS011;29578;51.946;5.874;2023-04-15T06:10:39;1.60;;;1.05;;
43919;SDS011;29578;51.946;5.874;2023-04-15T06:13:05;1.10;;;0.80;;
43919;SDS011;29578;51.946;5.874;2023-04-15T06:15:32;0.90;;;0.80;;
43919;SDS011;29578;51.946;5.874;2023-04-15T06:17:57;1.38;;;0.88;;
43919;SDS011;29578;51.946;5.874;2023-04-15T06:20:23;1.27;;;0.95;;
43919;SDS011;29578;51.946;5.874;2023-04-15T06:22:49;1.45;;;1.02;;
43919;SDS011;29578;51.946;5.874;2023-04-15T06:25:15;1.92;;;1.15;;
43919;SDS011;29578;51.946;5.874;2023-04-15T06:27:41;1.75;;;1.00;;
43919;SDS011;29578;51.946;5.874;2023-04-15T06:30:07;1.15;;;0.90;;
43919;SDS011;29578;51.946;5.874;2023-04-15T06:32:33;1.42;;;1.00;;
43919;SDS011;29578;51.946;5.874;2023-04-15T06:34:59;1.05;;;0.80;;
43919;SDS011;29578;51.946;5.874;2023-04-15T06:37:25;1.92;;;1.02;;
43919;SDS011;29578;51.946;5.874;2023-04-15T06:39:50;1.00;;;0.88;;
43919;SDS011;29578;51.946;5.874;2023-04-15T06:42:16;1.20;;;0.82;;
43919;SDS011;29578;51.946;5.874;2023-04-15T06:44:42;0.88;;;0.68;;
43919;SDS011;29578;51.946;5.874;2023-04-15T06:47:08;1.77;;;0.95;;
43919;SDS011;29578;51.946;5.874;2023-04-15T06:49:33;1.17;;;0.90;;
43919;SDS011;29578;51.946;5.874;2023-04-15T06:51:59;0.85;;;0.80;;
43919;SDS011;29578;51.946;5.874;2023-04-15T06:54:25;0.95;;;0.80;;
43919;SDS011;29578;51.946;5.874;2023-04-15T06:56:51;1.42;;;1.00;;
43919;SDS011;29578;51.946;5.874;2023-04-15T06:59:17;0.82;;;0.80;;
43919;SDS011;29578;51.946;5.874;2023-04-15T07:01:43;1.33;;;1.00;;
43919;SDS011;29578;51.946;5.874;2023-04-15T07:04:09;1.25;;;0.98;;
43919;SDS011;29578;51.946;5.874;2023-04-15T07:06:35;0.77;;;0.75;;
43919;SDS011;29578;51.946;5.874;2023-04-15T07:09:00;0.90;;;0.82;;
43919;SDS011;29578;51.946;5.874;2023-04-15T07:11:27;0.90;;;0.70;;
43919;SDS011;29578;51.946;5.874;2023-04-15T07:13:53;0.82;;;0.70;;
43919;SDS011;29578;51.946;5.874;2023-04-15T07:16:18;1.42;;;0.90;;
43919;SDS011;29578;51.946;5.874;2023-04-15T07:18:44;1.95;;;1.25;;
43919;SDS011;29578;51.946;5.874;2023-04-15T07:21:10;1.02;;;0.75;;
43919;SDS011;29578;51.946;5.874;2023-04-15T07:23:35;0.80;;;0.80;;
43919;SDS011;29578;51.946;5.874;2023-04-15T07:26:01;3.17;;;0.90;;
43919;SDS011;29578;51.946;5.874;2023-04-15T07:28:27;1.90;;;0.85;;
43919;SDS011;29578;51.946;5.874;2023-04-15T07:30:53;0.85;;;0.60;;
43919;SDS011;29578;51.946;5.874;2023-04-15T07:33:20;1.33;;;0.82;;
43919;SDS011;29578;51.946;5.874;2023-04-15T07:35:45;1.02;;;0.88;;
43919;SDS011;29578;51.946;5.874;2023-04-15T07:38:11;1.45;;;0.98;;
43919;SDS011;29578;51.946;5.874;2023-04-15T07:40:37;0.95;;;0.75;;
43919;SDS011;29578;51.946;5.874;2023-04-15T07:43:03;1.17;;;0.80;;
43919;SDS011;29578;51.946;5.874;2023-04-15T07:45:30;1.33;;;0.82;;
43919;SDS011;29578;51.946;5.874;2023-04-15T07:47:56;1.50;;;0.98;;
43919;SDS011;29578;51.946;5.874;2023-04-15T07:50:22;2.15;;;1.17;;
43919;SDS011;29578;51.946;5.874;2023-04-15T07:52:48;0.75;;;0.68;;
43919;SDS011;29578;51.946;5.874;2023-04-15T07:55:15;1.40;;;1.00;;
43919;SDS011;29578;51.946;5.874;2023-04-15T07:57:43;1.20;;;0.85;;
43919;SDS011;29578;51.946;5.874;2023-04-15T08:00:11;1.25;;;0.90;;
43919;SDS011;29578;51.946;5.874;2023-04-15T08:02:37;1.58;;;1.00;;
43919;SDS011;29578;51.946;5.874;2023-04-15T08:05:03;1.42;;;0.88;;
43919;SDS011;29578;51.946;5.874;2023-04-15T08:07:29;1.45;;;1.00;;
43919;SDS011;29578;51.946;5.874;2023-04-15T08:09:55;0.98;;;0.88;;
43919;SDS011;29578;51.946;5.874;2023-04-15T08:12:21;1.70;;;1.10;;
43919;SDS011;29578;51.946;5.874;2023-04-15T08:21:13;2.42;;;1.73;;
43919;SDS011;29578;51.946;5.874;2023-04-15T08:23:39;2.53;;;1.42;;
43919;SDS011;29578;51.946;5.874;2023-04-15T08:26:05;1.17;;;1.02;;
43919;SDS011;29578;51.946;5.874;2023-04-15T08:28:30;1.70;;;1.20;;
43919;SDS011;29578;51.946;5.874;2023-04-15T08:30:56;1.25;;;1.00;;
43919;SDS011;29578;51.946;5.874;2023-04-15T08:33:22;1.38;;;1.10;;
43919;SDS011;29578;51.946;5.874;2023-04-15T08:35:47;1.33;;;0.95;;
43919;SDS011;29578;51.946;5.874;2023-04-15T08:38:13;1.00;;;0.90;;
43919;SDS011;29578;51.946;5.874;2023-04-15T08:40:41;0.77;;;0.77;;
43919;SDS011;29578;51.946;5.874;2023-04-15T08:43:08;0.60;;;0.60;;
43919;SDS011;29578;51.946;5.874;2023-04-15T08:45:37;0.88;;;0.70;;
43919;SDS011;29578;51.946;5.874;2023-04-15T08:48:04;0.77;;;0.77;;
43919;SDS011;29578;51.946;5.874;2023-04-15T08:50:31;0.93;;;0.57;;
43919;SDS011;29578;51.946;5.874;2023-04-15T08:52:58;0.75;;;0.60;;
43919;SDS011;29578;51.946;5.874;2023-04-15T08:55:26;0.77;;;0.60;;
43919;SDS011;29578;51.946;5.874;2023-04-15T08:57:57;0.70;;;0.70;;
43919;SDS011;29578;51.946;5.874;2023-04-15T09:00:23;0.50;;;0.50;;
43919;SDS011;29578;51.946;5.874;2023-04-15T09:02:51;0.95;;;0.50;;
43919;SDS011;29578;51.946;5.874;2023-04-15T09:05:16;0.60;;;0.60;;
43919;SDS011;29578;51.946;5.874;2023-04-15T09:07:42;0.60;;;0.60;;
43919;SDS011;29578;51.946;5.874;2023-04-15T09:10:08;0.55;;;0.52;;
43919;SDS011;29578;51.946;5.874;2023-04-15T09:12:34;1.15;;;0.70;;
43919;SDS011;29578;51.946;5.874;2023-04-15T09:15:01;1.33;;;0.85;;
43919;SDS011;29578;51.946;5.874;2023-04-15T09:17:27;1.02;;;0.77;;
43919;SDS011;29578;51.946;5.874;2023-04-15T09:20:12;0.77;;;0.60;;
43919;SDS011;29578;51.946;5.874;2023-04-15T09:22:40;1.02;;;0.80;;
43919;SDS011;29578;51.946;5.874;2023-04-15T09:25:23;0.98;;;0.68;;
43919;SDS011;29578;51.946;5.874;2023-04-15T09:27:51;0.90;;;0.55;;
43919;SDS011;29578;51.946;5.874;2023-04-15T09:30:20;0.68;;;0.68;;
43919;SDS011;29578;51.946;5.874;2023-04-15T09:35:23;0.60;;;0.60;;
43919;SDS011;29578;51.946;5.874;2023-04-15T09:37:50;0.65;;;0.65;;
43919;SDS011;29578;51.946;5.874;2023-04-15T09:43:00;0.80;;;0.60;;
43919;SDS011;29578;51.946;5.874;2023-04-15T09:45:27;0.82;;;0.80;;
43919;SDS011;29578;51.946;5.874;2023-04-15T09:47:53;0.95;;;0.70;;
43919;SDS011;29578;51.946;5.874;2023-04-15T09:50:20;0.88;;;0.80;;
43919;SDS011;29578;51.946;5.874;2023-04-15T09:52:46;1.00;;;0.70;;
43919;SDS011;29578;51.946;5.874;2023-04-15T09:55:13;0.93;;;0.52;;
43919;SDS011;29578;51.946;5.874;2023-04-15T09:57:40;0.63;;;0.60;;
43919;SDS011;29578;51.946;5.874;2023-04-15T10:00:07;0.90;;;0.75;;
43919;SDS011;29578;51.946;5.874;2023-04-15T10:02:35;0.52;;;0.52;;
43919;SDS011;29578;51.946;5.874;2023-04-15T10:05:01;0.60;;;0.60;;
43919;SDS011;29578;51.946;5.874;2023-04-15T10:07:27;0.98;;;0.73;;
43919;SDS011;29578;51.946;5.874;2023-04-15T10:09:53;0.60;;;0.60;;
43919;SDS011;29578;51.946;5.874;2023-04-15T10:12:20;0.70;;;0.70;;
43919;SDS011;29578;51.946;5.874;2023-04-15T10:14:47;1.10;;;0.70;;
43919;SDS011;29578;51.946;5.874;2023-04-15T10:17:17;0.93;;;0.77;;
43919;SDS011;29578;51.946;5.874;2023-04-15T10:19:45;0.70;;;0.70;;
43919;SDS011;29578;51.946;5.874;2023-04-15T10:22:12;0.70;;;0.70;;
43919;SDS011;29578;51.946;5.874;2023-04-15T10:24:38;0.80;;;0.70;;
43919;SDS011;29578;51.946;5.874;2023-04-15T10:27:04;0.60;;;0.60;;
43919;SDS011;29578;51.946;5.874;2023-04-15T10:29:31;0.88;;;0.50;;
43919;SDS011;29578;51.946;5.874;2023-04-15T10:31:57;0.82;;;0.60;;
43919;SDS011;29578;51.946;5.874;2023-04-15T10:34:24;0.70;;;0.50;;
43919;SDS011;29578;51.946;5.874;2023-04-15T10:36:53;0.40;;;0.40;;
43919;SDS011;29578;51.946;5.874;2023-04-15T10:42:05;0.50;;;0.50;;
43919;SDS011;29578;51.946;5.874;2023-04-15T10:44:32;1.15;;;0.60;;
43919;SDS011;29578;51.946;5.874;2023-04-15T10:47:03;0.40;;;0.40;;
43919;SDS011;29578;51.946;5.874;2023-04-15T10:49:34;0.35;;;0.35;;
43919;SDS011;29578;51.946;5.874;2023-04-15T10:52:09;0.30;;;0.30;;
43919;SDS011;29578;51.946;5.874;2023-04-15T10:54:35;0.70;;;0.60;;
43919;SDS011;29578;51.946;5.874;2023-04-15T10:57:06;0.50;;;0.50;;
43919;SDS011;29578;51.946;5.874;2023-04-15T10:59:35;0.40;;;0.40;;
43919;SDS011;29578;51.946;5.874;2023-04-15T11:02:03;0.55;;;0.55;;
43919;SDS011;29578;51.946;5.874;2023-04-15T11:07:34;0.68;;;0.57;;
43919;SDS011;29578;51.946;5.874;2023-04-15T11:13:17;0.43;;;0.40;;
43919;SDS011;29578;51.946;5.874;2023-04-15T11:15:47;0.53;;;0.53;;
43919;SDS011;29578;51.946;5.874;2023-04-15T11:18:13;0.60;;;0.52;;
43919;SDS011;29578;51.946;5.874;2023-04-15T11:20:43;0.70;;;0.60;;
43919;SDS011;29578;51.946;5.874;2023-04-15T11:23:17;0.80;;;0.60;;
43919;SDS011;29578;51.946;5.874;2023-04-15T11:25:44;0.68;;;0.60;;
43919;SDS011;29578;51.946;5.874;2023-04-15T11:28:10;0.60;;;0.60;;
43919;SDS011;29578;51.946;5.874;2023-04-15T11:30:37;0.50;;;0.50;;
43919;SDS011;29578;51.946;5.874;2023-04-15T11:33:04;0.43;;;0.43;;
43919;SDS011;29578;51.946;5.874;2023-04-15T11:35:32;0.50;;;0.50;;
43919;SDS011;29578;51.946;5.874;2023-04-15T11:38:14;0.50;;;0.50;;
43919;SDS011;29578;51.946;5.874;2023-04-15T11:40:41;0.40;;;0.40;;
43919;SDS011;29578;51.946;5.874;2023-04-15T11:43:09;0.95;;;0.73;;
43919;SDS011;29578;51.946;5.874;2023-04-15T11:45:36;0.98;;;0.60;;
43919;SDS011;29578;51.946;5.874;2023-04-15T11:48:12;0.40;;;0.40;;
43919;SDS011;29578;51.946;5.874;2023-04-15T11:50:38;0.40;;;0.40;;
43919;SDS011;29578;51.946;5.874;2023-04-15T11:53:06;0.50;;;0.50;;
43919;SDS011;29578;51.946;5.874;2023-04-15T11:55:41;0.98;;;0.70;;
43919;SDS011;29578;51.946;5.874;2023-04-15T11:58:10;0.60;;;0.60;;
43919;SDS011;29578;51.946;5.874;2023-04-15T12:00:39;1.55;;;0.70;;
43919;SDS011;29578;51.946;5.874;2023-04-15T12:11:03;0.50;;;0.50;;
43919;SDS011;29578;51.946;5.874;2023-04-15T12:13:29;0.40;;;0.40;;
43919;SDS011;29578;51.946;5.874;2023-04-15T12:15:55;0.68;;;0.68;;
43919;SDS011;29578;51.946;5.874;2023-04-15T12:18:21;0.57;;;0.52;;
43919;SDS011;29578;51.946;5.874;2023-04-15T12:20:49;0.47;;;0.47;;
43919;SDS011;29578;51.946;5.874;2023-04-15T12:23:18;0.57;;;0.50;;
43919;SDS011;29578;51.946;5.874;2023-04-15T12:25:50;0.50;;;0.50;;
43919;SDS011;29578;51.946;5.874;2023-04-15T12:28:16;0.40;;;0.40;;
43919;SDS011;29578;51.946;5.874;2023-04-15T12:30:49;0.70;;;0.60;;
43919;SDS011;29578;51.946;5.874;2023-04-15T12:33:16;0.82;;;0.50;;
43919;SDS011;29578;51.946;5.874;2023-04-15T12:35:41;0.60;;;0.50;;
43919;SDS011;29578;51.946;5.874;2023-04-15T12:38:07;0.43;;;0.40;;
43919;SDS011;29578;51.946;5.874;2023-04-15T12:40:34;0.60;;;0.40;;
43919;SDS011;29578;51.946;5.874;2023-04-15T12:43:00;0.30;;;0.30;;
43919;SDS011;29578;51.946;5.874;2023-04-15T12:45:25;0.52;;;0.40;;
43919;SDS011;29578;51.946;5.874;2023-04-15T12:47:51;0.35;;;0.35;;
43919;SDS011;29578;51.946;5.874;2023-04-15T12:50:17;0.70;;;0.50;;
43919;SDS011;29578;51.946;5.874;2023-04-15T12:52:42;0.40;;;0.40;;
43919;SDS011;29578;51.946;5.874;2023-04-15T12:55:08;0.57;;;0.50;;
43919;SDS011;29578;51.946;5.874;2023-04-15T12:57:34;0.60;;;0.43;;
43919;SDS011;29578;51.946;5.874;2023-04-15T13:00:00;0.55;;;0.55;;
43919;SDS011;29578;51.946;5.874;2023-04-15T13:02:25;0.50;;;0.50;;
43919;SDS011;29578;51.946;5.874;2023-04-15T13:04:52;0.57;;;0.57;;
43919;SDS011;29578;51.946;5.874;2023-04-15T13:07:18;0.50;;;0.50;;
43919;SDS011;29578;51.946;5.874;2023-04-15T13:09:44;0.50;;;0.50;;
43919;SDS011;29578;51.946;5.874;2023-04-15T13:12:10;0.73;;;0.60;;
43919;SDS011;29578;51.946;5.874;2023-04-15T13:14:37;0.70;;;0.60;;
43919;SDS011;29578;51.946;5.874;2023-04-15T13:17:03;0.50;;;0.50;;
43919;SDS011;29578;51.946;5.874;2023-04-15T13:19:34;0.40;;;0.40;;
43919;SDS011;29578;51.946;5.874;2023-04-15T13:22:01;0.77;;;0.28;;
43919;SDS011;29578;51.946;5.874;2023-04-15T13:24:26;0.52;;;0.50;;
43919;SDS011;29578;51.946;5.874;2023-04-15T13:26:52;0.60;;;0.57;;
43919;SDS011;29578;51.946;5.874;2023-04-15T13:29:18;0.40;;;0.40;;
43919;SDS011;29578;51.946;5.874;2023-04-15T13:31:44;0.40;;;0.40;;
43919;SDS011;29578;51.946;5.874;2023-04-15T13:34:10;0.55;;;0.55;;
43919;SDS011;29578;51.946;5.874;2023-04-15T13:36:35;0.57;;;0.57;;
43919;SDS011;29578;51.946;5.874;2023-04-15T13:39:01;0.30;;;0.30;;
43919;SDS011;29578;51.946;5.874;2023-04-15T13:41:27;0.40;;;0.40;;
43919;SDS011;29578;51.946;5.874;2023-04-15T13:43:53;0.57;;;0.50;;
43919;SDS011;29578;51.946;5.874;2023-04-15T13:46:18;0.40;;;0.40;;
43919;SDS011;29578;51.946;5.874;2023-04-15T13:48:44;0.47;;;0.40;;
43919;SDS011;29578;51.946;5.874;2023-04-15T13:51:10;0.30;;;0.30;;
43919;SDS011;29578;51.946;5.874;2023-04-15T13:53:35;0.30;;;0.30;;
43919;SDS011;29578;51.946;5.874;2023-04-15T13:56:01;0.40;;;0.40;;
43919;SDS011;29578;51.946;5.874;2023-04-15T13:58:26;1.10;;;0.50;;
43919;SDS011;29578;51.946;5.874;2023-04-15T14:00:52;0.38;;;0.30;;
43919;SDS011;29578;51.946;5.874;2023-04-15T14:03:17;0.85;;;0.40;;
43919;SDS011;29578;51.946;5.874;2023-04-15T14:05:43;0.20;;;0.20;;
43919;SDS011;29578;51.946;5.874;2023-04-15T14:08:09;0.30;;;0.30;;
43919;SDS011;29578;51.946;5.874;2023-04-15T14:10:35;0.40;;;0.38;;
43919;SDS011;29578;51.946;5.874;2023-04-15T14:13:00;0.43;;;0.43;;
43919;SDS011;29578;51.946;5.874;2023-04-15T14:15:26;0.30;;;0.30;;
43919;SDS011;29578;51.946;5.874;2023-04-15T14:17:52;2.03;;;0.68;;
43919;SDS011;29578;51.946;5.874;2023-04-15T14:20:17;0.35;;;0.35;;
43919;SDS011;29578;51.946;5.874;2023-04-15T14:22:43;0.77;;;0.50;;
43919;SDS011;29578;51.946;5.874;2023-04-15T14:25:08;0.73;;;0.60;;
43919;SDS011;29578;51.946;5.874;2023-04-15T14:27:34;0.52;;;0.50;;
43919;SDS011;29578;51.946;5.874;2023-04-15T14:30:00;0.70;;;0.40;;
43919;SDS011;29578;51.946;5.874;2023-04-15T14:32:25;0.30;;;0.30;;
43919;SDS011;29578;51.946;5.874;2023-04-15T14:34:51;0.40;;;0.40;;
43919;SDS011;29578;51.946;5.874;2023-04-15T14:37:17;0.30;;;0.30;;
43919;SDS011;29578;51.946;5.874;2023-04-15T14:39:42;0.30;;;0.30;;
43919;SDS011;29578;51.946;5.874;2023-04-15T14:42:08;1.00;;;0.50;;
43919;SDS011;29578;51.946;5.874;2023-04-15T14:44:33;0.52;;;0.50;;
43919;SDS011;29578;51.946;5.874;2023-04-15T14:46:59;0.40;;;0.40;;
43919;SDS011;29578;51.946;5.874;2023-04-15T14:49:25;0.55;;;0.30;;
43919;SDS011;29578;51.946;5.874;2023-04-15T14:51:50;0.85;;;0.50;;
43919;SDS011;29578;51.946;5.874;2023-04-15T14:54:16;0.95;;;0.50;;
43919;SDS011;29578;51.946;5.874;2023-04-15T14:56:41;0.50;;;0.50;;
43919;SDS011;29578;51.946;5.874;2023-04-15T14:59:07;0.40;;;0.40;;
43919;SDS011;29578;51.946;5.874;2023-04-15T15:01:33;0.50;;;0.47;;
43919;SDS011;29578;51.946;5.874;2023-04-15T15:03:58;0.80;;;0.50;;
43919;SDS011;29578;51.946;5.874;2023-04-15T15:06:24;0.30;;;0.30;;
43919;SDS011;29578;51.946;5.874;2023-04-15T15:08:50;0.73;;;0.50;;
43919;SDS011;29578;51.946;5.874;2023-04-15T15:11:16;0.32;;;0.32;;